Main page
METAR-TAF:

METAR-TAF

Airports :

Bournemouth Airport

Bournemouth, England

latitude: 50-47N, longitude: 001-50W, elevation: 11 m

Current weather observation

The report was made 13 minutes ago, at 05:20 UTC
Wind 4 kt from the West
Temperature 12°C
Humidity 94%
Pressure 1016 hPa
Visibility 10 km or more
no clouds below 1500 m and no cumulonimbus

METAR: EGHH 170520Z 28004KT CAVOK 12/11 Q1016

Time: 06:33 (05:33 UTC)

Forecast

The report was made 6 hours and 39 minutes ago, at 22:54 UTC
Forecast valid from 17 at 00 UTC to 17 at 09 UTC
Wind 10 kt from the West/Northwest
Visibility 10 km or more
Few clouds at a height of 3000 ft
Probability 30%
from 17 at 02 UTC to 17 at 07 UTC
Visibility: 8000 m

TAF: EGHH 162254Z 1700/1709 30010KT 9999 FEW030 PROB30 1702/1707 8000

Weather observations and forecasts of more than 4000 airports (METAR and TAF reports).

The available stations are represented by yellow and red dots on the map.

Hover mouse over dot to see the name of the station.

Then click to see weather observations and forecasts.

To change the map : click on the green buttons with a black cross to zoom in, on the green button with a dash to zoom out, or on the green arrows for adjacent maps.


METAR-TAF: